Time;durP1;ratioP1;P1;durP2;ratioP2;P2;SDS_P1;SDS_P2;PMS_P1;PMS_P2;Temp;Humidity;BMP_temperature;BMP_pressure;BME280_temperature;BME280_humidity;BME280_pressure;Samples;Min_cycle;Max_cycle;Signal;HPM_P1;HPM_P2
2023/01/10 00:00:10;;;;;;;14.93;2.03;;;;;;;7.06;100.00;101054.31;5032380;28;21366;-69
2023/01/10 00:02:35;;;;;;;10.65;1.85;;;;;;;7.09;100.00;101075.38;5037603;28;20043;-68
2023/01/10 00:05:01;;;;;;;8.27;1.45;;;;;;;7.13;100.00;101078.09;5034443;28;20459;-69
2023/01/10 00:07:26;;;;;;;14.30;2.38;;;;;;;7.16;100.00;101076.47;5030004;28;20021;-70
2023/01/10 00:09:51;;;;;;;15.90;2.17;;;;;;;7.17;100.00;101075.59;5031842;28;20029;-70
2023/01/10 00:15:00;;;;;;;29.85;1.75;;;;;;;7.18;100.00;101080.00;5032273;28;20091;-69
2023/01/10 00:17:26;;;;;;;15.00;2.17;;;;;;;7.23;100.00;101075.84;5032833;28;20026;-69
2023/01/10 00:19:51;;;;;;;12.02;1.95;;;;;;;7.23;100.00;101082.78;5029652;28;20029;-68
2023/01/10 00:22:19;;;;;;;17.45;2.33;;;;;;;7.23;100.00;101085.41;5031157;28;20037;-69
2023/01/10 00:24:44;;;;;;;12.20;2.47;;;;;;;7.21;100.00;101087.09;5030076;28;20029;-68
2023/01/10 00:27:11;;;;;;;20.20;2.67;;;;;;;7.22;100.00;101094.97;5031788;28;20037;-69
2023/01/10 00:29:38;;;;;;;15.68;2.28;;;;;;;7.24;100.00;101100.25;5032184;28;20080;-69
2023/01/10 00:32:03;;;;;;;23.92;2.15;;;;;;;7.22;100.00;101115.03;5031860;28;20033;-69
2023/01/10 00:34:30;;;;;;;16.00;2.63;;;;;;;7.22;100.00;101115.91;5030633;28;20029;-69
2023/01/10 00:36:55;;;;;;;18.08;2.53;;;;;;;7.23;100.00;101122.94;5031855;28;20041;-69
2023/01/10 00:39:20;;;;;;;19.13;2.28;;;;;;;7.26;100.00;101119.53;5031092;28;20029;-69
2023/01/10 00:44:29;;;;;;;;;;;;;;;7.23;100.00;101122.03;5035026;28;20044;-69
2023/01/10 00:46:55;;;;;;;17.92;2.10;;;;;;;7.27;100.00;101129.19;5036512;28;20353;-69
2023/01/10 00:49:21;;;;;;;18.98;2.60;;;;;;;7.27;100.00;101129.19;5032250;28;20030;-68
2023/01/10 00:51:46;;;;;;;20.30;2.30;;;;;;;7.28;100.00;101136.19;5030016;28;20045;-68
2023/01/10 00:54:13;;;;;;;16.60;2.88;;;;;;;7.27;100.00;101134.44;5033289;28;20029;-68
2023/01/10 00:56:39;;;;;;;19.17;2.05;;;;;;;7.31;100.00;101133.69;5030743;28;20021;-69
2023/01/10 00:59:05;;;;;;;19.10;2.33;;;;;;;7.29;100.00;101137.97;5033297;28;20435;-69
2023/01/10 01:01:31;;;;;;;14.48;2.53;;;;;;;7.27;100.00;101139.66;5030848;28;20036;-68
2023/01/10 01:03:58;;;;;;;20.40;2.78;;;;;;;7.26;100.00;101135.25;5032782;28;20029;-68
2023/01/10 01:06:24;;;;;;;19.08;2.97;;;;;;;7.28;100.00;101133.56;5031391;28;20026;-69
2023/01/10 01:08:49;;;;;;;21.35;2.53;;;;;;;7.27;100.00;101142.28;5032440;28;20381;-69
2023/01/10 01:11:14;;;;;;;26.20;2.50;;;;;;;7.28;100.00;101138.78;5031405;28;20393;-69
2023/01/10 01:13:39;;;;;;;20.27;2.83;;;;;;;7.27;100.00;101150.13;5032294;28;20064;-69
2023/01/10 01:16:05;;;;;;;22.77;3.35;;;;;;;7.30;100.00;101155.47;5042672;28;20116;-69
2023/01/10 01:18:31;;;;;;;17.05;3.75;;;;;;;7.35;100.00;101160.84;5034582;28;20022;-69
2023/01/10 01:20:59;;;;;;;17.83;2.53;;;;;;;7.34;100.00;101162.59;5031525;28;20432;-70
2023/01/10 01:23:25;;;;;;;21.95;3.40;;;;;;;7.34;100.00;101154.72;5033211;28;20032;-69
2023/01/10 01:25:54;;;;;;;12.13;2.03;;;;;;;7.33;100.00;101171.25;5032671;28;20022;-69
2023/01/10 01:28:20;;;;;;;22.70;3.05;;;;;;;7.33;100.00;101159.91;5032559;28;20036;-70
2023/01/10 01:30:46;;;;;;;16.88;2.90;;;;;;;7.37;100.00;101175.78;5036119;28;20028;-71
2023/01/10 01:33:12;;;;;;;16.88;2.67;;;;;;;7.37;100.00;101177.50;5037789;28;20504;-67
2023/01/10 01:35:41;;;;;;;14.70;2.70;;;;;;;7.40;100.00;101173.25;5032311;28;20025;-68
2023/01/10 01:38:07;;;;;;;24.65;3.03;;;;;;;7.39;100.00;101181.06;5031579;28;20039;-69
2023/01/10 01:40:32;;;;;;;26.08;2.83;;;;;;;7.39;100.00;101181.97;5031382;28;20029;-70
2023/01/10 01:42:57;;;;;;;18.52;2.85;;;;;;;7.39;100.00;101181.06;5028770;28;20021;-69
2023/01/10 01:45:23;;;;;;;33.75;3.53;;;;;;;7.42;100.00;101191.66;5030248;28;20053;-69
2023/01/10 01:47:53;;;;;;;27.08;2.92;;;;;;;7.40;100.00;101183.72;5042470;28;20033;-69
2023/01/10 01:50:26;;;;;;;20.13;2.10;;;;;;;7.39;100.00;101195.06;5031559;28;20671;-69
2023/01/10 01:52:55;;;;;;;25.88;3.17;;;;;;;7.38;100.00;101203.75;5029920;28;20030;-69
2023/01/10 01:55:23;;;;;;;23.75;2.83;;;;;;;7.37;100.00;101203.69;5030971;28;20424;-70
2023/01/10 01:57:52;;;;;;;22.13;2.65;;;;;;;7.39;100.00;101208.16;5034622;28;20060;-70
2023/01/10 02:00:17;;;;;;;21.77;2.95;;;;;;;7.37;100.00;101215.03;5035430;28;20057;-70
2023/01/10 02:02:48;;;;;;;17.20;2.42;;;;;;;7.41;100.00;101213.44;5031878;28;20079;-70
2023/01/10 02:05:16;;;;;;;20.42;4.15;;;;;;;7.37;100.00;101224.63;5029349;28;20031;-70
2023/01/10 02:07:46;;;;;;;15.65;3.30;;;;;;;7.39;100.00;101222.94;5029010;28;20033;-69
2023/01/10 02:10:20;;;;;;;23.40;2.85;;;;;;;7.39;100.00;101222.94;5029441;28;20359;-70
2023/01/10 02:12:49;;;;;;;24.92;5.68;;;;;;;7.40;100.00;101216.88;5028707;28;20855;-68
2023/01/10 02:15:16;;;;;;;21.70;2.72;;;;;;;7.44;100.00;101213.53;5058688;28;20041;-68
2023/01/10 02:17:41;;;;;;;26.38;4.20;;;;;;;7.45;100.00;101215.31;5031541;28;20389;-70
2023/01/10 02:20:12;;;;;;;17.23;3.25;;;;;;;7.46;100.00;101213.56;5041415;28;20045;-71
2023/01/10 02:23:11;;;;;;;16.38;2.58;;;;;;;7.46;100.00;101213.56;5022819;28;20171;-70
2023/01/10 02:26:12;;;;;;;22.23;3.53;;;;;;;7.43;100.00;101215.28;5030422;28;20101;-69
2023/01/10 02:28:43;;;;;;;18.42;2.53;;;;;;;7.39;100.00;101217.72;5028831;28;20040;-69
2023/01/10 02:31:31;;;;;;;13.43;2.72;;;;;;;7.37;100.00;101220.28;5040649;28;20029;-69
2023/01/10 02:34:24;;;;;;;22.58;3.08;;;;;;;7.36;100.00;101223.72;5049596;28;20400;-69
2023/01/10 02:37:05;;;;;;;28.52;2.83;;;;;;;7.34;100.00;101230.66;5027505;28;20477;-70
2023/01/10 02:39:46;;;;;;;26.95;2.67;;;;;;;7.35;100.00;101237.66;5024655;28;20448;-71
2023/01/10 02:42:17;;;;;;;23.02;2.70;;;;;;;7.35;100.00;101248.16;5023400;28;20038;-69
2023/01/10 02:44:56;;;;;;;20.77;2.30;;;;;;;7.35;100.00;101242.91;5028597;28;20025;-71
2023/01/10 02:47:22;;;;;;;22.45;3.22;;;;;;;7.36;100.00;101242.03;5030415;28;20032;-69
2023/01/10 02:49:49;;;;;;;15.07;3.03;;;;;;;7.38;100.00;101252.56;5030803;28;20432;-70
2023/01/10 02:52:29;;;;;;;22.42;2.40;;;;;;;7.37;100.00;101246.47;5039868;28;20033;-68
2023/01/10 02:54:58;;;;;;;19.63;2.72;;;;;;;7.41;100.00;101256.19;5059500;28;20065;-69
2023/01/10 02:57:55;;;;;;;20.88;2.90;;;;;;;7.43;100.00;101254.53;5027546;28;20029;-69
2023/01/10 03:00:39;;;;;;;15.73;2.85;;;;;;;7.40;100.00;101248.28;5031705;28;20470;-69
2023/01/10 03:03:32;;;;;;;36.58;3.90;;;;;;;7.36;100.00;101247.28;5024913;28;20029;-70
2023/01/10 03:06:17;;;;;;;23.38;2.92;;;;;;;7.34;100.00;101245.44;5026791;28;20420;-68
2023/01/10 03:08:52;;;;;;;14.57;3.63;;;;;;;7.30;100.00;101243.56;5031479;28;20057;-68
2023/01/10 03:11:38;;;;;;;19.35;3.08;;;;;;;7.29;100.00;101255.75;5029800;28;20485;-69
2023/01/10 03:14:07;;;;;;;20.33;2.67;;;;;;;7.26;100.00;101250.41;5028110;28;20033;-70
2023/01/10 03:16:35;;;;;;;18.92;2.55;;;;;;;7.22;100.00;101259.88;5028767;28;20041;-69
2023/01/10 03:19:09;;;;;;;19.17;2.47;;;;;;;7.22;100.00;101266.84;5027874;28;20044;-70
2023/01/10 03:21:36;;;;;;;19.67;2.67;;;;;;;7.17;100.00;101271.00;5030271;28;20452;-69
2023/01/10 03:24:12;;;;;;;24.77;3.55;;;;;;;7.09;100.00;101255.94;5041533;28;20033;-69
2023/01/10 03:26:51;;;;;;;29.70;3.25;;;;;;;7.00;100.00;101260.81;5028580;28;20078;-69
2023/01/10 03:29:24;;;;;;;21.00;3.38;;;;;;;6.98;100.00;101262.47;5028023;28;20521;-69
2023/01/10 03:31:56;;;;;;;32.33;3.80;;;;;;;6.94;100.00;101264.91;5028287;28;20025;-70
2023/01/10 03:34:22;;;;;;;22.30;2.78;;;;;;;6.92;100.00;101277.94;5030249;28;20052;-70
2023/01/10 03:37:06;;;;;;;14.60;2.28;;;;;;;6.90;100.00;101271.75;5029970;28;20032;-68
2023/01/10 03:39:52;;;;;;;22.00;3.60;;;;;;;6.86;100.00;101299.53;5038208;28;20028;-69
2023/01/10 03:42:20;;;;;;;20.20;2.70;;;;;;;6.86;100.00;101289.06;5035154;28;20493;-70
2023/01/10 03:45:05;;;;;;;17.58;3.83;;;;;;;6.89;100.00;101299.66;5032717;28;20037;-69
2023/01/10 03:47:41;;;;;;;20.58;3.38;;;;;;;6.89;100.00;101293.50;5032452;28;20029;-69
2023/01/10 03:50:12;;;;;;;17.50;2.42;;;;;;;6.92;100.00;101304.09;5030896;28;20084;-68
2023/01/10 03:52:40;;;;;;;27.50;3.65;;;;;;;6.89;100.00;101303.97;5029353;28;20029;-68
2023/01/10 03:55:08;;;;;;;18.08;3.42;;;;;;;6.86;100.00;101299.53;5032183;28;20040;-69
2023/01/10 03:57:34;;;;;;;22.77;3.40;;;;;;;6.86;100.00;101316.94;5033097;28;20030;-70
2023/01/10 03:59:59;;;;;;;20.65;3.10;;;;;;;6.88;100.00;101312.66;5032390;28;20402;-69
2023/01/10 04:02:30;;;;;;;22.55;2.67;;;;;;;6.87;100.00;101318.72;5036296;28;20033;-69
2023/01/10 04:04:56;;;;;;;18.40;2.60;;;;;;;6.85;100.00;101320.38;5031842;28;20025;-68
2023/01/10 04:07:22;;;;;;;24.38;2.90;;;;;;;6.82;100.00;101320.25;5035833;28;20068;-68
2023/01/10 04:09:47;;;;;;;18.00;2.85;;;;;;;6.80;100.00;101320.22;5034137;28;20069;-69
2023/01/10 04:12:13;;;;;;;16.20;2.90;;;;;;;6.78;100.00;101319.22;5037877;28;20108;-68
2023/01/10 04:14:38;;;;;;;18.60;2.85;;;;;;;6.78;100.00;101326.19;5034361;28;20490;-69
2023/01/10 04:17:04;;;;;;;22.23;2.72;;;;;;;6.70;100.00;101326.81;5034257;28;20021;-69
2023/01/10 04:19:30;;;;;;;15.10;2.42;;;;;;;6.67;100.00;101325.78;5034497;28;20021;-69
2023/01/10 04:21:55;;;;;;;26.17;2.97;;;;;;;6.62;100.00;101333.44;5032232;28;20435;-67
2023/01/10 04:24:21;;;;;;;17.77;2.67;;;;;;;6.58;100.00;101347.22;5032403;28;20458;-68
2023/01/10 04:26:47;;;;;;;26.75;2.95;;;;;;;6.52;100.00;101350.44;5034252;28;20021;-68
2023/01/10 04:29:12;;;;;;;21.80;2.97;;;;;;;6.49;100.00;101342.50;5032356;28;20033;-68
2023/01/10 04:31:38;;;;;;;15.07;2.63;;;;;;;6.47;100.00;101336.31;5038623;28;20396;-70
2023/01/10 04:34:05;;;;;;;19.58;3.35;;;;;;;6.46;100.00;101336.22;5034440;28;20040;-69
2023/01/10 04:36:30;;;;;;;21.88;2.92;;;;;;;6.43;100.00;101338.72;5029214;28;20171;-69
2023/01/10 04:38:55;;;;;;;19.95;3.10;;;;;;;6.37;100.00;101327.19;5034416;28;20097;-68
2023/01/10 04:41:21;;;;;;;19.85;2.75;;;;;;;6.34;100.00;101332.28;5032549;28;20164;-69
2023/01/10 04:43:46;;;;;;;19.88;3.75;;;;;;;6.33;100.00;101338.34;5030739;28;20742;-68
2023/01/10 04:46:11;;;;;;;16.52;3.70;;;;;;;6.32;100.00;101340.91;5031158;28;20525;-68
2023/01/10 04:48:37;;;;;;;32.08;3.67;;;;;;;6.31;100.00;101345.25;5033998;28;20044;-68
2023/01/10 04:51:02;;;;;;;21.17;3.20;;;;;;;6.26;100.00;101359.84;5039968;28;20020;-68
2023/01/10 04:53:28;;;;;;;26.60;2.92;;;;;;;6.22;100.00;101371.88;5040869;28;20052;-68
2023/01/10 04:55:53;;;;;;;30.27;4.13;;;;;;;6.17;100.00;101377.72;5030888;28;20021;-71
2023/01/10 04:58:18;;;;;;;33.17;4.35;;;;;;;6.14;100.00;101373.25;5032709;28;20029;-70
2023/01/10 05:00:44;;;;;;;15.50;3.00;;;;;;;6.07;100.00;101372.09;5031252;28;20053;-69
2023/01/10 05:03:09;;;;;;;34.13;4.43;;;;;;;6.06;100.00;101386.00;5032535;28;20035;-69
2023/01/10 05:05:35;;;;;;;30.20;3.38;;;;;;;6.07;100.00;101385.16;5032314;28;20523;-68
2023/01/10 05:08:01;;;;;;;24.33;3.25;;;;;;;6.07;100.00;101379.94;5032483;28;20187;-68
2023/01/10 05:10:26;;;;;;;22.45;2.97;;;;;;;6.04;100.00;101376.31;5031912;28;20021;-70
2023/01/10 05:12:51;;;;;;;29.55;3.90;;;;;;;6.03;100.00;101380.63;5030328;28;20037;-69
2023/01/10 05:15:19;;;;;;;24.05;4.32;;;;;;;6.01;100.00;101377.06;5032779;28;20112;-67
2023/01/10 05:17:45;;;;;;;22.75;3.28;;;;;;;6.00;100.00;101379.63;5028956;28;20021;-69
2023/01/10 05:20:12;;;;;;;32.05;3.95;;;;;;;5.99;100.00;101388.28;5031419;28;20498;-68
2023/01/10 05:22:37;;;;;;;30.08;4.45;;;;;;;5.97;100.00;101393.41;5033582;28;20436;-68
2023/01/10 05:25:03;;;;;;;20.05;3.10;;;;;;;6.02;100.00;101388.41;5031295;28;20029;-69
2023/01/10 05:27:28;;;;;;;24.05;4.97;;;;;;;5.99;100.00;101394.38;5030302;28;20489;-68
2023/01/10 05:29:54;;;;;;;28.90;3.13;;;;;;;5.98;100.00;101403.06;5032332;28;20021;-68
2023/01/10 05:32:19;;;;;;;28.17;3.63;;;;;;;5.97;100.00;101414.31;5031947;28;20461;-68
2023/01/10 05:34:44;;;;;;;28.00;3.53;;;;;;;5.94;100.00;101408.94;5030332;28;20060;-69
2023/01/10 05:37:10;;;;;;;23.85;3.60;;;;;;;5.90;100.00;101405.31;5026681;28;20040;-69
2023/01/10 05:39:35;;;;;;;22.38;3.50;;;;;;;5.89;100.00;101407.84;5026365;28;20386;-69
2023/01/10 05:42:00;;;;;;;24.77;3.40;;;;;;;5.88;100.00;101408.66;5025318;28;20460;-71
2023/01/10 05:44:26;;;;;;;21.60;3.33;;;;;;;5.88;100.00;101421.72;5030450;28;20033;-69
2023/01/10 05:46:51;;;;;;;23.92;3.65;;;;;;;5.84;100.00;101430.25;5036666;28;20072;-70
2023/01/10 05:49:16;;;;;;;25.23;3.13;;;;;;;5.80;100.00;101416.16;5038004;28;20527;-69
2023/01/10 05:51:42;;;;;;;19.45;3.92;;;;;;;5.81;100.00;101419.69;5029628;28;20026;-69
2023/01/10 05:54:08;;;;;;;28.63;3.75;;;;;;;5.80;100.00;101423.09;5030147;28;20116;-69
2023/01/10 05:56:33;;;;;;;25.80;3.45;;;;;;;5.73;100.00;101433.25;5026086;28;20049;-68
2023/01/10 05:58:58;;;;;;;22.55;3.58;;;;;;;5.67;100.00;101432.06;5025403;28;20025;-68
2023/01/10 06:01:24;;;;;;;25.70;4.43;;;;;;;5.61;100.00;101432.69;5022783;28;20057;-68
2023/01/10 06:03:49;;;;;;;14.27;2.90;;;;;;;5.57;100.00;101433.38;5025804;28;20029;-68
2023/01/10 06:06:14;;;;;;;19.73;3.50;;;;;;;5.54;100.00;101435.84;5033088;28;20021;-70
2023/01/10 06:08:40;;;;;;;21.33;3.47;;;;;;;5.52;100.00;101427.97;5026286;28;20030;-68
2023/01/10 06:11:06;;;;;;;21.52;3.70;;;;;;;5.51;100.00;101428.78;5026406;28;20036;-69
2023/01/10 06:13:32;;;;;;;16.27;2.92;;;;;;;5.47;100.00;101421.63;5026789;28;20039;-69
2023/01/10 06:15:58;;;;;;;24.13;3.60;;;;;;;5.43;100.00;101422.31;5027688;28;20465;-69
2023/01/10 06:18:23;;;;;;;22.02;4.10;;;;;;;5.37;100.00;101417.69;5031111;28;20025;-70
2023/01/10 06:20:49;;;;;;;27.08;4.07;;;;;;;5.36;100.00;101425.44;5035302;28;20025;-69
2023/01/10 06:23:14;;;;;;;24.88;3.30;;;;;;;5.29;100.00;101445.13;5031625;28;20044;-69
2023/01/10 06:25:40;;;;;;;21.90;2.72;;;;;;;5.22;100.00;101443.03;5031685;28;20485;-68
2023/01/10 06:28:11;;;;;;;15.55;3.28;;;;;;;5.19;100.00;101438.56;5043142;28;20033;-70
2023/01/10 06:30:36;;;;;;;30.42;3.42;;;;;;;5.14;100.00;101442.69;5031696;28;20100;-68
2023/01/10 06:33:04;;;;;;;25.65;3.55;;;;;;;5.07;100.00;101446.72;5029956;28;20112;-69
2023/01/10 06:35:30;;;;;;;15.95;2.92;;;;;;;5.00;100.00;101452.44;5030673;28;20028;-74
2023/01/10 06:37:56;;;;;;;28.77;3.75;;;;;;;4.92;100.00;101448.56;5029110;28;20124;-69
2023/01/10 06:40:22;;;;;;;22.42;3.35;;;;;;;4.87;100.00;101453.56;5030998;28;20389;-69
2023/01/10 06:42:47;;;;;;;22.92;3.10;;;;;;;4.86;100.00;101458.69;5032835;28;20033;-70
2023/01/10 06:45:12;;;;;;;16.25;2.42;;;;;;;4.86;100.00;101453.50;5032890;28;20053;-69
2023/01/10 06:47:38;;;;;;;26.85;4.15;;;;;;;4.84;100.00;101463.84;5064390;28;20025;-69
2023/01/10 06:50:04;;;;;;;27.38;3.60;;;;;;;4.84;100.00;101481.19;5032048;28;20044;-69
2023/01/10 06:52:29;;;;;;;25.13;4.32;;;;;;;4.82;100.00;101485.44;5042372;28;20029;-68
2023/01/10 06:54:55;;;;;;;21.67;3.85;;;;;;;4.80;100.00;101480.16;5030097;28;20044;-69
2023/01/10 06:57:20;;;;;;;19.30;4.18;;;;;;;4.91;100.00;101491.13;5044706;28;20449;-69
2023/01/10 06:59:45;;;;;;;25.48;3.50;;;;;;;4.95;100.00;101490.47;5039153;28;20456;-68
2023/01/10 07:02:11;;;;;;;20.27;3.47;;;;;;;5.04;100.00;101498.72;5033560;28;20461;-69
2023/01/10 07:04:36;;;;;;;18.83;4.32;;;;;;;5.11;100.00;101504.25;5031561;28;20440;-69
2023/01/10 07:07:02;;;;;;;23.98;3.65;;;;;;;5.20;100.00;101512.53;5022632;28;20103;-70
2023/01/10 07:09:27;;;;;;;27.75;3.60;;;;;;;5.25;100.00;101511.06;5030030;28;20089;-69
2023/01/10 07:11:53;;;;;;;22.50;3.05;;;;;;;5.33;100.00;101517.53;5027628;28;20035;-68
2023/01/10 07:14:18;;;;;;;14.18;2.80;;;;;;;5.40;100.00;101526.56;5029990;28;20037;-68
2023/01/10 07:16:44;;;;;;;20.33;3.75;;;;;;;5.44;100.00;101538.03;5033042;28;20105;-68
2023/01/10 07:19:12;;;;;;;27.08;3.25;;;;;;;5.54;100.00;101532.44;5032920;28;20069;-68
2023/01/10 07:21:37;;;;;;;29.48;4.32;;;;;;;5.55;100.00;101529.91;5032822;28;20120;-68
2023/01/10 07:24:03;;;;;;;11.25;2.50;;;;;;;5.60;100.00;101522.28;5030832;28;20123;-69
2023/01/10 07:26:28;;;;;;;21.10;3.75;;;;;;;5.60;100.00;101522.28;5027183;28;20072;-69
2023/01/10 07:28:54;;;;;;;24.00;3.60;;;;;;;5.62;100.00;101525.88;5031970;28;20028;-68
2023/01/10 07:31:21;;;;;;;19.02;3.20;;;;;;;5.64;100.00;101524.22;5032700;28;20369;-69
2023/01/10 07:33:47;;;;;;;26.98;4.15;;;;;;;5.65;100.00;101523.41;5024750;28;20061;-69
2023/01/10 07:36:12;;;;;;;20.63;3.45;;;;;;;5.66;100.00;101524.31;5025889;28;20030;-69
2023/01/10 07:38:38;;;;;;;28.42;4.82;;;;;;;5.66;100.00;101527.81;5031630;28;20091;-69
2023/01/10 07:41:04;;;;;;;24.65;3.30;;;;;;;5.72;100.00;101529.81;5026221;28;20021;-69
2023/01/10 07:43:30;;;;;;;23.38;3.55;;;;;;;5.77;100.00;101527.44;5029728;28;20072;-72
2023/01/10 07:46:04;;;;;;;27.15;3.03;;;;;;;5.81;100.00;101530.25;5031211;28;20044;-70
2023/01/10 07:48:29;;;;;;;;;;;;;;;5.82;100.00;101533.72;5041041;28;20029;-70
2023/01/10 07:50:56;;;;;;;25.48;3.05;;;;;;;5.84;100.00;101529.50;5049325;28;20325;-70
2023/01/10 07:53:22;;;;;;;33.13;3.40;;;;;;;5.86;100.00;101525.22;5047263;28;20427;-70
2023/01/10 07:55:47;;;;;;;35.65;4.60;;;;;;;5.91;100.00;101523.72;5031376;28;20025;-71
2023/01/10 07:58:13;;;;;;;24.58;3.40;;;;;;;5.92;100.00;101528.13;5037495;28;20021;-71
2023/01/10 08:00:38;;;;;;;25.25;3.30;;;;;;;5.94;100.00;101531.72;5033105;28;20049;-70
2023/01/10 08:03:05;;;;;;;30.05;3.55;;;;;;;5.93;100.00;101534.25;5046813;28;20028;-70
2023/01/10 08:05:30;;;;;;;20.77;3.10;;;;;;;5.93;100.00;101543.00;5034861;28;20025;-70
2023/01/10 08:07:58;;;;;;;25.45;3.53;;;;;;;5.93;100.00;101540.38;5041970;28;20029;-71
2023/01/10 08:10:24;;;;;;;14.98;3.08;;;;;;;5.91;100.00;101536.78;5035092;28;20086;-70
2023/01/10 08:12:50;;;;;;;19.23;3.40;;;;;;;5.79;100.00;101546.66;5034911;28;20109;-70
2023/01/10 08:15:15;;;;;;;32.70;5.10;;;;;;;5.79;100.00;101547.53;5053223;28;20473;-71
2023/01/10 08:17:40;;;;;;;25.23;3.83;;;;;;;5.77;100.00;101543.09;5054689;28;20036;-71
2023/01/10 08:20:06;;;;;;;28.08;3.40;;;;;;;5.74;100.00;101549.94;5040037;28;20033;-70
2023/01/10 08:22:32;;;;;;;24.85;3.60;;;;;;;5.74;100.00;101539.50;5031693;28;20128;-70
2023/01/10 08:24:57;;;;;;;24.50;3.42;;;;;;;5.74;100.00;101534.28;5032887;28;20029;-72
2023/01/10 08:27:22;;;;;;;19.80;3.78;;;;;;;5.77;100.00;101535.25;5029795;28;20060;-71
2023/01/10 08:29:48;;;;;;;27.75;4.65;;;;;;;5.76;100.00;101534.34;5034301;28;20034;-70
2023/01/10 08:32:13;;;;;;;27.40;4.40;;;;;;;5.68;100.00;101531.41;5021594;28;20021;-70
2023/01/10 08:34:39;;;;;;;26.92;3.88;;;;;;;5.68;100.00;101528.78;5034472;28;20412;-68
2023/01/10 08:37:04;;;;;;;25.42;4.15;;;;;;;5.65;100.00;101528.63;5031793;28;20436;-69
2023/01/10 08:39:30;;;;;;;20.25;3.63;;;;;;;5.68;100.00;101528.78;5033538;28;20120;-69
2023/01/10 08:41:56;;;;;;;23.13;5.30;;;;;;;5.62;100.00;101528.47;5046545;28;20025;-70
2023/01/10 08:44:21;;;;;;;25.52;3.13;;;;;;;5.60;100.00;101535.31;5045486;28;20056;-69
2023/01/10 08:46:47;;;;;;;24.55;4.60;;;;;;;5.57;100.00;101525.66;5037198;28;20041;-69
2023/01/10 08:49:12;;;;;;;30.35;5.13;;;;;;;5.60;100.00;101534.44;5029799;28;20024;-69
2023/01/10 08:51:38;;;;;;;25.88;4.22;;;;;;;5.56;100.00;101522.94;5037501;28;20044;-69
2023/01/10 08:54:03;;;;;;;27.83;4.40;;;;;;;5.56;100.00;101522.94;5031607;28;20079;-69
2023/01/10 08:56:29;;;;;;;34.00;4.55;;;;;;;5.55;100.00;101534.25;5032017;28;20067;-68
2023/01/10 08:58:54;;;;;;;24.00;3.00;;;;;;;5.60;100.00;101518.78;5034154;28;20021;-69
2023/01/10 09:01:20;;;;;;;32.63;3.50;;;;;;;5.60;100.00;101518.78;5036119;28;20046;-68
2023/01/10 09:03:45;;;;;;;23.08;4.65;;;;;;;5.59;100.00;101523.13;5033650;28;20041;-69
2023/01/10 09:06:10;;;;;;;18.73;3.67;;;;;;;5.64;100.00;101512.88;5031611;28;20277;-70
2023/01/10 09:08:37;;;;;;;18.27;3.50;;;;;;;5.70;100.00;101514.06;5044493;28;20373;-67
2023/01/10 09:11:03;;;;;;;19.65;3.58;;;;;;;5.76;100.00;101513.47;5032565;28;20034;-68
2023/01/10 09:13:29;;;;;;;23.90;3.63;;;;;;;5.76;100.00;101509.97;5035441;28;20029;-69
2023/01/10 09:15:55;;;;;;;31.83;5.75;;;;;;;5.72;100.00;101508.91;5034004;28;20032;-68
2023/01/10 09:18:21;;;;;;;20.17;4.15;;;;;;;5.66;100.00;101501.69;5023560;28;20021;-70
2023/01/10 09:20:48;;;;;;;19.15;5.35;;;;;;;5.72;100.00;101499.38;5027182;28;20025;-68
2023/01/10 09:23:17;;;;;;;27.98;5.93;;;;;;;5.73;100.00;101501.16;5028057;28;20030;-69
2023/01/10 09:25:44;;;;;;;22.70;4.65;;;;;;;5.77;100.00;101506.53;5025936;28;20040;-70
2023/01/10 09:28:10;;;;;;;16.98;4.93;;;;;;;5.71;100.00;101507.13;5031190;28;20554;-69
2023/01/10 09:30:35;;;;;;;20.75;4.22;;;;;;;5.72;100.00;101496.78;5033024;28;20288;-69
2023/01/10 09:33:02;;;;;;;29.17;3.88;;;;;;;5.72;100.00;101498.47;5031702;28;20029;-69
2023/01/10 09:35:29;;;;;;;25.33;4.43;;;;;;;5.74;100.00;101500.34;5033005;28;20041;-68
2023/01/10 09:37:56;;;;;;;22.25;4.13;;;;;;;5.70;100.00;101514.06;5030895;28;20096;-69
2023/01/10 09:40:46;;;;;;;22.48;4.45;;;;;;;5.75;100.00;101511.66;5035056;28;20106;-69
2023/01/10 09:43:32;;;;;;;24.02;4.03;;;;;;;5.77;100.00;101506.53;5032144;28;20029;-70
2023/01/10 09:46:08;;;;;;;29.23;3.85;;;;;;;5.78;100.00;101519.66;5026058;28;20029;-68
2023/01/10 09:49:05;;;;;;;23.58;4.18;;;;;;;5.73;100.00;101516.81;5043554;28;20037;-68
2023/01/10 09:51:40;;;;;;;27.02;3.45;;;;;;;5.74;100.00;101510.78;5032253;28;20496;-69
2023/01/10 09:54:12;;;;;;;26.48;3.38;;;;;;;5.72;100.00;101515.06;5031425;28;20974;-69
2023/01/10 09:56:39;;;;;;;25.38;3.95;;;;;;;5.74;100.00;101518.63;5031806;28;20370;-68
2023/01/10 09:59:08;;;;;;;27.80;3.78;;;;;;;5.72;100.00;101517.66;5030151;28;20028;-69
2023/01/10 10:01:35;;;;;;;26.63;4.00;;;;;;;5.74;100.00;101505.56;5027347;28;20045;-70
2023/01/10 10:04:40;;;;;;;27.17;4.57;;;;;;;5.80;100.00;101498.84;5033292;28;20022;-69
2023/01/10 10:07:11;;;;;;;;;;;;;;;5.82;100.00;101510.22;5020506;28;20151;-70
2023/01/10 10:09:36;;;;;;;22.35;3.65;;;;;;;5.79;100.00;101500.53;5024945;28;19921;-70
2023/01/10 10:12:23;;;;;;;19.75;4.20;;;;;;;5.82;100.00;101500.69;5022579;28;20048;-68
2023/01/10 10:14:54;;;;;;;29.48;3.58;;;;;;;5.76;100.00;101494.28;5042954;28;20111;-68
2023/01/10 10:18:04;;;;;;;28.85;3.10;;;;;;;5.68;100.00;101494.84;5033979;28;20033;-69
2023/01/10 10:20:35;;;;;;;21.58;3.97;;;;;;;5.64;100.00;101485.03;5032391;28;20397;-68
2023/01/10 10:23:03;;;;;;;25.35;4.47;;;;;;;5.71;100.00;101497.59;5033540;28;20026;-69
2023/01/10 10:25:47;;;;;;;29.20;4.00;;;;;;;5.77;100.00;101485.66;5043249;28;20108;-69
2023/01/10 10:28:53;;;;;;;23.17;2.90;;;;;;;5.68;100.00;101484.41;5023871;28;20033;-69
2023/01/10 10:31:36;;;;;;;23.90;4.63;;;;;;;5.78;100.00;101479.56;5032263;28;20033;-69
2023/01/10 10:34:15;;;;;;;13.45;4.25;;;;;;;5.72;100.00;101475.88;5050469;28;20468;-68
2023/01/10 10:36:49;;;;;;;19.90;3.58;;;;;;;5.54;100.00;101462.84;5025604;28;20041;-70
2023/01/10 10:39:19;;;;;;;39.10;4.75;;;;;;;5.65;100.00;101465.06;5031689;28;20421;-67
2023/01/10 10:41:49;;;;;;;26.13;4.65;;;;;;;5.62;100.00;101460.59;5032312;28;20079;-68
2023/01/10 10:44:31;;;;;;;23.15;3.53;;;;;;;5.64;100.00;101465.88;5037553;28;20061;-69
2023/01/10 10:46:58;;;;;;;19.63;3.00;;;;;;;5.73;100.00;101464.59;5031211;28;20385;-70
2023/01/10 10:49:55;;;;;;;18.80;4.65;;;;;;;5.70;100.00;101451.41;5032642;28;20021;-70
2023/01/10 10:52:23;;;;;;;19.98;4.55;;;;;;;5.69;100.00;101451.34;5024238;28;20066;-69
2023/01/10 10:54:50;;;;;;;20.50;3.17;;;;;;;5.65;100.00;101436.34;5016391;28;20029;-69
2023/01/10 10:57:16;;;;;;;19.58;3.60;;;;;;;5.73;100.00;101432.38;5021480;28;20037;-69
2023/01/10 10:59:45;;;;;;;19.52;4.10;;;;;;;5.81;100.00;101432.72;5033938;28;20057;-70
2023/01/10 11:02:21;;;;;;;28.10;5.13;;;;;;;5.77;100.00;101428.19;5034475;28;20068;-68
2023/01/10 11:04:49;;;;;;;23.88;4.60;;;;;;;5.80;100.00;101431.81;5035662;28;20477;-68
2023/01/10 11:07:16;;;;;;;33.95;5.55;;;;;;;5.82;100.00;101424.03;5035083;28;20029;-69
2023/01/10 11:12:31;;;;;;;21.65;4.65;;;;;;;5.80;100.00;101421.38;5044562;28;20033;-69
2023/01/10 11:14:58;;;;;;;20.33;4.30;;;;;;;5.79;100.00;101416.09;5037380;28;20030;-69
2023/01/10 11:17:28;;;;;;;16.13;3.15;;;;;;;5.84;100.00;101406.75;5034372;28;20104;-69
2023/01/10 11:20:05;;;;;;;20.48;4.43;;;;;;;5.85;100.00;101403.31;5047188;28;20531;-68
2023/01/10 11:22:42;;;;;;;14.85;3.75;;;;;;;5.90;100.00;101407.00;5045371;28;20456;-69
2023/01/10 11:25:17;;;;;;;18.48;4.13;;;;;;;5.93;100.00;101401.94;5039394;28;20424;-68
2023/01/10 11:27:50;;;;;;;13.98;3.30;;;;;;;6.00;100.00;101398.78;5032954;28;20128;-69
2023/01/10 11:30:22;;;;;;;29.33;3.55;;;;;;;5.98;100.00;101392.63;5034320;28;20055;-68
2023/01/10 11:33:01;;;;;;;17.17;3.67;;;;;;;6.00;100.00;101396.19;5033218;28;20037;-69